Time;durP1;ratioP1;P1;durP2;ratioP2;P2;SDS_P1;SDS_P2;PMS_P1;PMS_P2;Temp;Humidity;BMP_temperature;BMP_pressure;BME280_temperature;BME280_humidity;BME280_pressure;Samples;Min_cycle;Max_cycle;Signal;HPM_P1;HPM_P2
2024/03/12 00:01:48;;;;;;;;;;;;;;;;;;4942508;28;95006;-76
2024/03/12 00:04:14;;;;;;;;;;;;;;;;;;4947809;28;93264;-76
2024/03/12 00:06:42;;;;;;;;;;;;;;;;;;4943798;28;95360;-76
2024/03/12 00:09:09;;;;;;;;;;;;;;;;;;4943578;28;92805;-75
2024/03/12 00:11:34;;;;;;;;;;;;;;;;;;4944437;28;92807;-75
2024/03/12 00:13:59;;;;;;;;;;;;;;;;;;4942773;28;93598;-76
2024/03/12 00:16:25;;;;;;;;;;;;;;;;;;4944367;28;92883;-76
2024/03/12 00:18:53;;;;;;;;;;;;;;;;;;4942498;28;92789;-76
2024/03/12 00:21:20;;;;;;;;;;;;;;;;;;4943308;28;93888;-76
2024/03/12 00:23:46;;;;;;;;;;;;;;;;;;4942864;28;94197;-76
2024/03/12 00:26:11;;;;;;;;;;;;;;;;;;4947444;28;92244;-76
2024/03/12 00:28:36;;;;;;;;;;;;;;;;;;4943967;28;92750;-76
2024/03/12 00:31:05;;;;;;;;;;;;;;;;;;4944541;28;92069;-76
2024/03/12 00:33:30;;;;;;;;;;;;;;;;;;4941615;28;93751;-76
2024/03/12 00:35:57;;;;;;;;;;;;;;;;;;4944063;28;92138;-76
2024/03/12 00:38:23;;;;;;;;;;;;;;;;;;4942113;28;93490;-76
2024/03/12 00:40:50;;;;;;;;;;;;;;;;;;4943102;28;96111;-76
2024/03/12 00:43:15;;;;;;;;;;;;;;;;;;4944433;28;92287;-75
2024/03/12 00:45:41;;;;;;;;;;;;;;;;;;4944115;28;92788;-76
2024/03/12 00:48:09;;;;;;;;;;;;;;;;;;4946732;28;92847;-76
2024/03/12 00:50:34;;;;;;;;;;;;;;;;;;4943400;28;93572;-76
2024/03/12 00:53:01;;;;;;;;;;;;;;;;;;4944015;28;93486;-77
2024/03/12 00:55:28;;;;;;;;;;;;;;;;;;4941937;28;93534;-75
2024/03/12 00:57:53;;;;;;;;;;;;;;;;;;4942455;28;92804;-74
2024/03/12 01:00:33;;;;;;;;;;;;;;;;;;4944009;28;93001;-75
2024/03/12 01:02:59;;;;;;;;;;;;;;;;;;4943067;28;94682;-76
2024/03/12 01:05:25;;;;;;;;;;;;;;;;;;4944059;28;92257;-76
2024/03/12 01:07:54;;;;;;;;;;;;;;;;;;4942813;28;95148;-76
2024/03/12 01:10:23;;;;;;;;;;;;;;;;;;4945107;28;93107;-76
2024/03/12 01:12:51;;;;;;;;;;;;;;;;;;4943409;28;92956;-76
2024/03/12 01:15:18;;;;;;;;;;;;;;;;;;4942363;28;95419;-76
2024/03/12 01:17:44;;;;;;;;;;;;;;;;;;4943682;28;92234;-75
2024/03/12 01:20:09;;;;;;;;;;;;;;;;;;4943514;28;93816;-75
2024/03/12 01:22:38;;;;;;;;;;;;;;;;;;4946698;28;93676;-76
2024/03/12 01:25:04;;;;;;;;;;;;;;;;;;4946269;28;92852;-75
2024/03/12 01:27:29;;;;;;;;;;;;;;;;;;4946829;28;94491;-75
2024/03/12 01:29:56;;;;;;;;;;;;;;;;;;4950360;28;93535;-76
2024/03/12 01:32:21;;;;;;;;;;;;;;;;;;4946456;28;92625;-76
2024/03/12 01:34:46;;;;;;;;;;;;;;;;;;4947081;28;92790;-76
2024/03/12 01:37:15;;;;;;;;;;;;;;;;;;4945027;28;92382;-76
2024/03/12 01:39:41;;;;;;;;;;;;;;;;;;4946720;28;92637;-75
2024/03/12 01:42:06;;;;;;;;;;;;;;;;;;4946065;28;92816;-75
2024/03/12 01:44:34;;;;;;;;;;;;;;;;;;4947269;28;91474;-76
2024/03/12 01:47:00;;;;;;;;;;;;;;;;;;4946160;28;93323;-76
2024/03/12 01:49:26;;;;;;;;;;;;;;;;;;4944870;28;93795;-76
2024/03/12 01:51:53;;;;;;;;;;;;;;;;;;4947401;28;93808;-76
2024/03/12 01:54:18;;;;;;;;;;;;;;;;;;4930206;28;93218;-76
2024/03/12 01:56:43;;;;;;;;;;;;;;;;;;4926933;28;92427;-76
2024/03/12 01:59:12;;;;;;;;;;;;;;;;;;4958036;28;95008;-76
2024/03/12 02:01:37;;;;;;;;;;;;;;;;;;4926056;28;93258;-76
2024/03/12 02:04:02;;;;;;;;;;;;;;;;;;4925362;28;92423;-76
2024/03/12 02:06:28;;;;;;;;;;;;;;;;;;4925182;28;95301;-76
2024/03/12 02:08:53;;;;;;;;;;;;;;;;;;4927113;28;92152;-75
2024/03/12 02:11:19;;;;;;;;;;;;;;;;;;4925808;28;92292;-76
2024/03/12 02:13:45;;;;;;;;;;;;;;;;;;4929218;28;92841;-76
2024/03/12 02:16:10;;;;;;;;;;;;;;;;;;4926494;28;94533;-76
2024/03/12 02:18:36;;;;;;;;;;;;;;;;;;4925722;28;96620;-76
2024/03/12 02:21:03;;;;;;;;;;;;;;;;;;4926301;28;93225;-76
2024/03/12 02:23:54;;;;;;;;;;;;;;;;;;4926625;28;92953;-76
2024/03/12 02:26:20;;;;;;;;;;;;;;;;;;4956111;28;94971;-75
2024/03/12 02:28:45;;;;;;;;;;;;;;;;;;4926284;28;93474;-76
2024/03/12 02:31:12;;;;;;;;;;;;;;;;;;4925180;28;92757;-76
2024/03/12 02:33:38;;;;;;;;;;;;;;;;;;4926534;28;92967;-76
2024/03/12 02:36:05;;;;;;;;;;;;;;;;;;4929538;28;92829;-76
2024/03/12 02:38:30;;;;;;;;;;;;;;;;;;4925134;28;93588;-75
2024/03/12 02:40:55;;;;;;;;;;;;;;;;;;4924502;28;96704;-73
2024/03/12 02:43:21;;;;;;;;;;;;;;;;;;4927069;28;93396;-76
2024/03/12 02:45:47;;;;;;;;;;;;;;;;;;4926699;28;92900;-76
2024/03/12 02:48:12;;;;;;;;;;;;;;;;;;4935687;28;92844;-75
2024/03/12 02:50:38;;;;;;;;;;;;;;;;;;4946034;28;92320;-76
2024/03/12 02:53:03;;;;;;;;;;;;;;;;;;4945860;28;92715;-76
2024/03/12 02:55:28;;;;;;;;;;;;;;;;;;4945563;28;92794;-77
2024/03/12 02:57:54;;;;;;;;;;;;;;;;;;4949180;28;91486;-76
2024/03/12 03:00:19;;;;;;;;;;;;;;;;;;4945232;28;93257;-76
2024/03/12 03:02:45;;;;;;;;;;;;;;;;;;4945369;28;92271;-76
2024/03/12 03:05:10;;;;;;;;;;;;;;;;;;4945034;28;93650;-75
2024/03/12 03:07:36;;;;;;;;;;;;;;;;;;4945506;28;94009;-76
2024/03/12 03:10:02;;;;;;;;;;;;;;;;;;4944255;28;93226;-76
2024/03/12 03:12:27;;;;;;;;;;;;;;;;;;4943593;28;94843;-76
2024/03/12 03:14:52;;;;;;;;;;;;;;;;;;4945152;28;93163;-76
2024/03/12 03:17:18;;;;;;;;;;;;;;;;;;4945497;28;92806;-76
2024/03/12 03:19:43;;;;;;;;;;;;;;;;;;4948495;28;92714;-77
2024/03/12 03:22:09;;;;;;;;;;;;;;;;;;4946387;28;92065;-76
2024/03/12 03:24:36;;;;;;;;;;;;;;;;;;4944389;28;95219;-76
2024/03/12 03:27:02;;;;;;;;;;;;;;;;;;4944070;28;94647;-76
2024/03/12 03:29:31;;;;;;;;;;;;;;;;;;4944266;28;93114;-76
2024/03/12 03:31:57;;;;;;;;;;;;;;;;;;4945171;28;93283;-77
2024/03/12 03:34:22;;;;;;;;;;;;;;;;;;4943228;28;93166;-76
2024/03/12 03:36:47;;;;;;;;;;;;;;;;;;4945358;28;92490;-77
2024/03/12 03:39:13;;;;;;;;;;;;;;;;;;4948003;28;92776;-77
2024/03/12 03:41:38;;;;;;;;;;;;;;;;;;4944774;28;92511;-76
2024/03/12 03:44:04;;;;;;;;;;;;;;;;;;4943351;28;94015;-76
2024/03/12 03:46:29;;;;;;;;;;;;;;;;;;4945411;28;92513;-76
2024/03/12 03:48:55;;;;;;;;;;;;;;;;;;4944819;28;92602;-77
2024/03/12 03:51:21;;;;;;;;;;;;;;;;;;4944152;28;95244;-76
2024/03/12 03:53:46;;;;;;;;;;;;;;;;;;4932090;28;94204;-76
2024/03/12 03:56:15;;;;;;;;;;;;;;;;;;4925186;28;92359;-77
2024/03/12 03:58:41;;;;;;;;;;;;;;;;;;4956328;28;95696;-77
2024/03/12 04:01:07;;;;;;;;;;;;;;;;;;4928284;28;92763;-77
2024/03/12 04:03:33;;;;;;;;;;;;;;;;;;4923351;28;95593;-77
2024/03/12 04:05:58;;;;;;;;;;;;;;;;;;4925283;28;93292;-76
2024/03/12 04:08:23;;;;;;;;;;;;;;;;;;4925282;28;92251;-76
2024/03/12 04:10:48;;;;;;;;;;;;;;;;;;4925891;28;92776;-76
2024/03/12 04:13:15;;;;;;;;;;;;;;;;;;4923238;28;93902;-76
2024/03/12 04:15:40;;;;;;;;;;;;;;;;;;4924960;28;92261;-76
2024/03/12 04:18:05;;;;;;;;;;;;;;;;;;4923316;28;94034;-76
2024/03/12 04:20:31;;;;;;;;;;;;;;;;;;4956123;28;95800;-77
2024/03/12 04:22:56;;;;;;;;;;;;;;;;;;4927935;28;92799;-77
2024/03/12 04:25:21;;;;;;;;;;;;;;;;;;4925053;28;92843;-76
2024/03/12 04:27:47;;;;;;;;;;;;;;;;;;4923287;28;92611;-77
2024/03/12 04:30:13;;;;;;;;;;;;;;;;;;4924333;28;93667;-77
2024/03/12 04:32:39;;;;;;;;;;;;;;;;;;4924426;28;92842;-77
2024/03/12 04:35:04;;;;;;;;;;;;;;;;;;4956633;28;92400;-77
2024/03/12 04:37:32;;;;;;;;;;;;;;;;;;4923262;28;94562;-77
2024/03/12 04:39:59;;;;;;;;;;;;;;;;;;4923765;28;93758;-76
2024/03/12 04:42:27;;;;;;;;;;;;;;;;;;4923110;28;94281;-76
2024/03/12 04:44:53;;;;;;;;;;;;;;;;;;4928142;28;93618;-76
2024/03/12 04:47:19;;;;;;;;;;;;;;;;;;4940753;28;92319;-76
2024/03/12 04:49:44;;;;;;;;;;;;;;;;;;4959003;28;93682;-77
2024/03/12 04:52:10;;;;;;;;;;;;;;;;;;4943465;28;93089;-77
2024/03/12 04:54:36;;;;;;;;;;;;;;;;;;4944075;28;92222;-78
2024/03/12 04:57:01;;;;;;;;;;;;;;;;;;4946178;28;95827;-76
2024/03/12 04:59:27;;;;;;;;;;;;;;;;;;4943758;28;94949;-78
2024/03/12 05:01:52;;;;;;;;;;;;;;;;;;4936957;28;92359;-77
2024/03/12 05:04:19;;;;;;;;;;;;;;;;;;4939176;28;92954;-76
2024/03/12 05:06:44;;;;;;;;;;;;;;;;;;4943089;28;93872;-77
2024/03/12 05:09:09;;;;;;;;;;;;;;;;;;4930250;28;96021;-77
2024/03/12 05:11:38;;;;;;;;;;;;;;;;;;4931804;28;92830;-76
2024/03/12 05:14:07;;;;;;;;;;;;;;;;;;4939131;28;92710;-76
2024/03/12 05:16:33;;;;;;;;;;;;;;;;;;4935935;28;92787;-77
2024/03/12 05:18:59;;;;;;;;;;;;;;;;;;4932089;28;93221;-77
2024/03/12 05:21:26;;;;;;;;;;;;;;;;;;4932570;28;92752;-77
2024/03/12 05:23:52;;;;;;;;;;;;;;;;;;4935966;28;92573;-77
2024/03/12 05:26:17;;;;;;;;;;;;;;;;;;4937141;28;96139;-76
2024/03/12 05:28:43;;;;;;;;;;;;;;;;;;4929883;28;92413;-77
2024/03/12 05:31:09;;;;;;;;;;;;;;;;;;4936376;28;94099;-77
2024/03/12 05:33:38;;;;;;;;;;;;;;;;;;4939486;28;92787;-77
2024/03/12 05:36:11;;;;;;;;;;;;;;;;;;4942761;28;95273;-77
2024/03/12 05:38:44;;;;;;;;;;;;;;;;;;4942557;28;95730;-77
2024/03/12 05:49:08;;;;;;;;;;;;;;;;;;4939943;28;92060;-77
2024/03/12 05:51:35;;;;;;;;;;;;;;;;;;4936555;28;95273;-78
2024/03/12 05:54:00;;;;;;;;;;;;;;;;;;4940561;28;92578;-76
2024/03/12 05:56:26;;;;;;;;;;;;;;;;;;4935000;28;95179;-76
2024/03/12 05:58:51;;;;;;;;;;;;;;;;;;4927501;28;92935;-76
2024/03/12 06:01:16;;;;;;;;;;;;;;;;;;4934688;28;92823;-76
2024/03/12 06:03:42;;;;;;;;;;;;;;;;;;4936907;28;92940;-77
2024/03/12 06:06:07;;;;;;;;;;;;;;;;;;4935833;28;92910;-77
2024/03/12 06:08:33;;;;;;;;;;;;;;;;;;4934395;28;92708;-77
2024/03/12 06:10:58;;;;;;;;;;;;;;;;;;4933416;28;93964;-77
2024/03/12 06:13:23;;;;;;;;;;;;;;;;;;4934439;28;91912;-77
2024/03/12 06:15:49;;;;;;;;;;;;;;;;;;4934109;28;92298;-78
2024/03/12 06:18:15;;;;;;;;;;;;;;;;;;4934566;28;92845;-75
2024/03/12 06:20:45;;;;;;;;;;;;;;;;;;4935778;28;93181;-75
2024/03/12 06:23:10;;;;;;;;;;;;;;;;;;4933770;28;93539;-76
2024/03/12 06:25:36;;;;;;;;;;;;;;;;;;4937730;28;93551;-75
2024/03/12 06:28:05;;;;;;;;;;;;;;;;;;4930781;28;92198;-76
2024/03/12 06:30:30;;;;;;;;;;;;;;;;;;4944651;28;92590;-77
2024/03/12 06:32:56;;;;;;;;;;;;;;;;;;4939505;28;93900;-76
2024/03/12 06:35:21;;;;;;;;;;;;;;;;;;4937153;28;92952;-76
2024/03/12 06:37:46;;;;;;;;;;;;;;;;;;4934819;28;91473;-77
2024/03/12 06:40:16;;;;;;;;;;;;;;;;;;4938427;28;92529;-76
2024/03/12 06:42:42;;;;;;;;;;;;;;;;;;4934322;28;92559;-76
2024/03/12 06:45:11;;;;;;;;;;;;;;;;;;4933508;28;93604;-77
2024/03/12 06:47:40;;;;;;;;;;;;;;;;;;4934172;28;92530;-76
2024/03/12 06:50:08;;;;;;;;;;;;;;;;;;4936303;28;93002;-77
2024/03/12 06:52:33;;;;;;;;;;;;;;;;;;4943366;28;95201;-77
2024/03/12 06:55:00;;;;;;;;;;;;;;;;;;4937407;28;93432;-77
2024/03/12 06:57:25;;;;;;;;;;;;;;;;;;4933591;28;93354;-76
2024/03/12 06:59:51;;;;;;;;;;;;;;;;;;4930615;28;92722;-77
2024/03/12 07:02:19;;;;;;;;;;;;;;;;;;4936516;28;92759;-77
2024/03/12 07:04:47;;;;;;;;;;;;;;;;;;4932123;28;93064;-76
2024/03/12 07:07:13;;;;;;;;;;;;;;;;;;4936225;28;92377;-78
2024/03/12 07:09:40;;;;;;;;;;;;;;;;;;4935550;28;94828;-78
2024/03/12 07:12:07;;;;;;;;;;;;;;;;;;4939713;28;93320;-77
2024/03/12 07:14:40;;;;;;;;;;;;;;;;;;4938634;28;92289;-73
2024/03/12 07:17:07;;;;;;;;;;;;;;;;;;4936205;28;93655;-73
2024/03/12 07:19:33;;;;;;;;;;;;;;;;;;4931093;28;92651;-72
2024/03/12 07:21:58;;;;;;;;;;;;;;;;;;4935515;28;94254;-75
2024/03/12 07:24:23;;;;;;;;;;;;;;;;;;4933827;28;92774;-76
2024/03/12 07:26:48;;;;;;;;;;;;;;;;;;4938764;28;93178;-74
2024/03/12 07:29:14;;;;;;;;;;;;;;;;;;4940607;28;92672;-76
2024/03/12 07:31:39;;;;;;;;;;;;;;;;;;4936106;28;92812;-76
2024/03/12 07:34:05;;;;;;;;;;;;;;;;;;4933296;28;93838;-73
2024/03/12 07:36:31;;;;;;;;;;;;;;;;;;4938103;28;93726;-75
2024/03/12 07:38:56;;;;;;;;;;;;;;;;;;4931268;28;92685;-76
2024/03/12 07:41:23;;;;;;;;;;;;;;;;;;4936698;28;92627;-73
2024/03/12 07:43:49;;;;;;;;;;;;;;;;;;4932986;28;93574;-75
2024/03/12 07:46:15;;;;;;;;;;;;;;;;;;4939489;28;92731;-75
2024/03/12 07:48:40;;;;;;;;;;;;;;;;;;4933994;28;95130;-73
2024/03/12 07:51:09;;;;;;;;;;;;;;;;;;4938694;28;92680;-74
2024/03/12 07:53:34;;;;;;;;;;;;;;;;;;4934811;28;94094;-73
2024/03/12 07:56:00;;;;;;;;;;;;;;;;;;4936985;28;92671;-73
2024/03/12 07:58:28;;;;;;;;;;;;;;;;;;4940849;28;93555;-74
2024/03/12 08:00:54;;;;;;;;;;;;;;;;;;4937303;28;96381;-74
2024/03/12 08:03:19;;;;;;;;;;;;;;;;;;4932413;28;92988;-77
2024/03/12 08:05:45;;;;;;;;;;;;;;;;;;4937830;28;92713;-76
2024/03/12 08:08:12;;;;;;;;;;;;;;;;;;4937728;28;94353;-77
2024/03/12 08:10:38;;;;;;;;;;;;;;;;;;4940850;28;93013;-74
2024/03/12 08:13:05;;;;;;;;;;;;;;;;;;4939006;28;93259;-74
2024/03/12 08:15:30;;;;;;;;;;;;;;;;;;4938957;28;95552;-74
2024/03/12 08:17:56;;;;;;;;;;;;;;;;;;4938650;28;93850;-70
2024/03/12 08:20:22;;;;;;;;;;;;;;;;;;4936202;28;92516;-74
2024/03/12 08:22:47;;;;;;;;;;;;;;;;;;4933272;28;93815;-75
2024/03/12 08:25:12;;;;;;;;;;;;;;;;;;4932521;28;92229;-75
2024/03/12 08:27:40;;;;;;;;;;;;;;;;;;4935507;28;93151;-75
2024/03/12 08:30:08;;;;;;;;;;;;;;;;;;4944779;28;93990;-75
2024/03/12 08:32:35;;;;;;;;;;;;;;;;;;4938513;28;92314;-74
2024/03/12 08:35:00;;;;;;;;;;;;;;;;;;4936849;28;94899;-76
2024/03/12 08:37:27;;;;;;;;;;;;;;;;;;4933493;28;94012;-75
2024/03/12 08:39:53;;;;;;;;;;;;;;;;;;4939280;28;91721;-75
2024/03/12 08:42:19;;;;;;;;;;;;;;;;;;4938767;28;95125;-74
2024/03/12 08:44:44;;;;;;;;;;;;;;;;;;4940030;28;92219;-74
2024/03/12 08:47:09;;;;;;;;;;;;;;;;;;4934078;28;95667;-73
2024/03/12 08:49:34;;;;;;;;;;;;;;;;;;4938087;28;92947;-73
2024/03/12 08:51:59;;;;;;;;;;;;;;;;;;4937574;28;92788;-73
2024/03/12 08:54:25;;;;;;;;;;;;;;;;;;4938714;28;93164;-72
2024/03/12 08:56:51;;;;;;;;;;;;;;;;;;4934483;28;93334;-73
2024/03/12 08:59:16;;;;;;;;;;;;;;;;;;4929886;28;92879;-74
2024/03/12 09:01:43;;;;;;;;;;;;;;;;;;4940434;28;93893;-74
2024/03/12 09:04:08;;;;;;;;;;;;;;;;;;4934662;28;92425;-75
2024/03/12 09:06:33;;;;;;;;;;;;;;;;;;4939208;28;93590;-75
2024/03/12 09:08:59;;;;;;;;;;;;;;;;;;4940655;28;95627;-73
2024/03/12 09:11:25;;;;;;;;;;;;;;;;;;4939135;28;93608;-75
2024/03/12 09:13:50;;;;;;;;;;;;;;;;;;4940698;28;93294;-74
2024/03/12 09:16:16;;;;;;;;;;;;;;;;;;4933281;28;92836;-73
2024/03/12 09:18:44;;;;;;;;;;;;;;;;;;4937490;28;92489;-73
2024/03/12 09:21:10;;;;;;;;;;;;;;;;;;4936050;28;93289;-73
2024/03/12 09:23:35;;;;;;;;;;;;;;;;;;4935265;28;92869;-73
2024/03/12 09:26:00;;;;;;;;;;;;;;;;;;4940014;28;92680;-74
2024/03/12 09:28:26;;;;;;;;;;;;;;;;;;4937621;28;92982;-74
2024/03/12 09:30:54;;;;;;;;;;;;;;;;;;4927644;28;92546;-73
2024/03/12 09:33:19;;;;;;;;;;;;;;;;;;4942042;28;95632;-74
2024/03/12 09:35:44;;;;;;;;;;;;;;;;;;4931146;28;95128;-75
2024/03/12 09:38:10;;;;;;;;;;;;;;;;;;4926339;28;92768;-78
2024/03/12 09:40:36;;;;;;;;;;;;;;;;;;4935936;28;93711;-77
2024/03/12 09:43:03;;;;;;;;;;;;;;;;;;4932257;28;92889;-80
2024/03/12 09:45:29;;;;;;;;;;;;;;;;;;4946630;28;92298;-78
2024/03/12 09:47:56;;;;;;;;;;;;;;;;;;4939468;28;95381;-74
2024/03/12 09:50:23;;;;;;;;;;;;;;;;;;4931608;28;92537;-75
2024/03/12 09:52:49;;;;;;;;;;;;;;;;;;4940466;28;93991;-74
2024/03/12 09:55:16;;;;;;;;;;;;;;;;;;4939342;28;93503;-75
2024/03/12 09:57:44;;;;;;;;;;;;;;;;;;4931209;28;92480;-73
2024/03/12 10:00:11;;;;;;;;;;;;;;;;;;4930157;28;94497;-74
2024/03/12 10:02:36;;;;;;;;;;;;;;;;;;4933362;28;92797;-74
2024/03/12 10:05:02;;;;;;;;;;;;;;;;;;4933818;28;92301;-74
2024/03/12 10:07:27;;;;;;;;;;;;;;;;;;4941225;28;92796;-73
2024/03/12 10:09:54;;;;;;;;;;;;;;;;;;4939468;28;92709;-74
2024/03/12 10:12:19;;;;;;;;;;;;;;;;;;4940692;28;92679;-74
2024/03/12 10:14:44;;;;;;;;;;;;;;;;;;4939830;28;93189;-74
2024/03/12 10:17:13;;;;;;;;;;;;;;;;;;4938792;28;92991;-77
2024/03/12 10:19:39;;;;;;;;;;;;;;;;;;4944864;28;94089;-74
2024/03/12 10:22:09;;;;;;;;;;;;;;;;;;4942704;28;92831;-77
2024/03/12 10:24:36;;;;;;;;;;;;;;;;;;4942697;28;93629;-76
2024/03/12 10:27:01;;;;;;;;;;;;;;;;;;4943119;28;96355;-74
2024/03/12 10:29:32;;;;;;;;;;;;;;;;;;4945787;28;95607;-75
2024/03/12 10:31:57;;;;;;;;;;;;;;;;;;4944997;28;92705;-75
2024/03/12 10:34:27;;;;;;;;;;;;;;;;;;4945225;28;92800;-73
2024/03/12 10:36:53;;;;;;;;;;;;;;;;;;4945693;28;92821;-74
2024/03/12 10:39:28;;;;;;;;;;;;;;;;;;4944985;28;92618;-77
2024/03/12 10:41:58;;;;;;;;;;;;;;;;;;4946548;28;92414;-76
2024/03/12 10:44:25;;;;;;;;;;;;;;;;;;4945667;28;92689;-76
2024/03/12 10:46:51;;;;;;;;;;;;;;;;;;4944560;28;95184;-74
2024/03/12 10:49:17;;;;;;;;;;;;;;;;;;4945112;28;94085;-74
2024/03/12 10:51:43;;;;;;;;;;;;;;;;;;4948449;28;92236;-74
2024/03/12 10:54:13;;;;;;;;;;;;;;;;;;4944915;28;93389;-75
2024/03/12 10:56:42;;;;;;;;;;;;;;;;;;4945658;28;92191;-74
2024/03/12 10:59:09;;;;;;;;;;;;;;;;;;4945056;28;92592;-74
2024/03/12 11:01:35;;;;;;;;;;;;;;;;;;4944956;28;94080;-74
2024/03/12 11:04:01;;;;;;;;;;;;;;;;;;4945205;28;92591;-75
2024/03/12 11:06:26;;;;;;;;;;;;;;;;;;4945972;28;92983;-74
2024/03/12 11:08:51;;;;;;;;;;;;;;;;;;4945210;28;92361;-73
2024/03/12 11:11:20;;;;;;;;;;;;;;;;;;4944988;28;92989;-73
2024/03/12 11:13:45;;;;;;;;;;;;;;;;;;4946249;28;96455;-75
2024/03/12 11:16:17;;;;;;;;;;;;;;;;;;4945270;28;92913;-75
2024/03/12 11:18:43;;;;;;;;;;;;;;;;;;4943526;28;94787;-76
2024/03/12 11:21:11;;;;;;;;;;;;;;;;;;4944433;28;92814;-73
2024/03/12 11:23:36;;;;;;;;;;;;;;;;;;4944787;28;92681;-75
2024/03/12 11:26:05;;;;;;;;;;;;;;;;;;4944972;28;92985;-73
2024/03/12 11:28:32;;;;;;;;;;;;;;;;;;4944857;28;93313;-74
2024/03/12 11:31:04;;;;;;;;;;;;;;;;;;4945339;28;91465;-74
2024/03/12 11:33:51;;;;;;;;;;;;;;;;;;4944759;28;92716;-73
2024/03/12 11:36:22;;;;;;;;;;;;;;;;;;4947809;28;93130;-73
2024/03/12 11:38:49;;;;;;;;;;;;;;;;;;4943970;28;93364;-73
2024/03/12 11:41:16;;;;;;;;;;;;;;;;;;4943765;28;92761;-74
2024/03/12 11:43:42;;;;;;;;;;;;;;;;;;4944838;28;93356;-73
2024/03/12 11:46:08;;;;;;;;;;;;;;;;;;4944400;28;92792;-74
2024/03/12 11:48:38;;;;;;;;;;;;;;;;;;4944372;28;93687;-74
2024/03/12 11:51:04;;;;;;;;;;;;;;;;;;4944710;28;93017;-74
2024/03/12 11:53:31;;;;;;;;;;;;;;;;;;4934684;28;93620;-74
2024/03/12 11:56:10;;;;;;;;;;;;;;;;;;4928731;28;92034;-73
2024/03/12 11:58:41;;;;;;;;;;;;;;;;;;4924511;28;92677;-73
2024/03/12 12:01:10;;;;;;;;;;;;;;;;;;4924440;28;93184;-74
2024/03/12 12:03:35;;;;;;;;;;;;;;;;;;4923717;28;93186;-72
2024/03/12 12:06:01;;;;;;;;;;;;;;;;;;4923183;28;93064;-73
2024/03/12 12:08:27;;;;;;;;;;;;;;;;;;4924695;28;92918;-74
2024/03/12 12:10:55;;;;;;;;;;;;;;;;;;4924926;28;92170;-74
2024/03/12 12:13:21;;;;;;;;;;;;;;;;;;4924788;28;92303;-75
2024/03/12 12:15:56;;;;;;;;;;;;;;;;;;4924639;28;92909;-75
2024/03/12 12:18:21;;;;;;;;;;;;;;;;;;4928020;28;92728;-75
2024/03/12 12:20:47;;;;;;;;;;;;;;;;;;4925343;28;92643;-74
2024/03/12 12:23:13;;;;;;;;;;;;;;;;;;4923556;28;92822;-73
2024/03/12 12:25:38;;;;;;;;;;;;;;;;;;4924702;28;92672;-75
2024/03/12 12:28:07;;;;;;;;;;;;;;;;;;4924291;28;94998;-74
2024/03/12 12:30:34;;;;;;;;;;;;;;;;;;4924656;28;92535;-75
2024/03/12 12:32:59;;;;;;;;;;;;;;;;;;4933047;28;93219;-75
2024/03/12 12:35:25;;;;;;;;;;;;;;;;;;4943532;28;94036;-74
2024/03/12 12:37:51;;;;;;;;;;;;;;;;;;4944012;28;92423;-73
2024/03/12 12:40:20;;;;;;;;;;;;;;;;;;4946903;28;93048;-73
2024/03/12 12:42:49;;;;;;;;;;;;;;;;;;4944218;28;92294;-73
2024/03/12 12:45:15;;;;;;;;;;;;;;;;;;4959276;28;93639;-75
2024/03/12 12:47:45;;;;;;;;;;;;;;;;;;4943877;28;92621;-74
2024/03/12 12:50:11;;;;;;;;;;;;;;;;;;4943405;28;93139;-74
2024/03/12 12:52:38;;;;;;;;;;;;;;;;;;4942998;28;93909;-73
2024/03/12 12:55:06;;;;;;;;;;;;;;;;;;4943414;28;92781;-74
2024/03/12 12:57:34;;;;;;;;;;;;;;;;;;4943661;28;92816;-74
2024/03/12 13:00:09;;;;;;;;;;;;;;;;;;4943668;28;92880;-74
2024/03/12 13:02:34;;;;;;;;;;;;;;;;;;4946652;28;93545;-74
2024/03/12 13:05:03;;;;;;;;;;;;;;;;;;4943655;28;93042;-74
2024/03/12 13:07:29;;;;;;;;;;;;;;;;;;4943711;28;93105;-74
2024/03/12 13:09:55;;;;;;;;;;;;;;;;;;4944273;28;91995;-74
2024/03/12 13:12:20;;;;;;;;;;;;;;;;;;4942971;28;92461;-74
2024/03/12 13:14:46;;;;;;;;;;;;;;;;;;4943175;28;92822;-73
2024/03/12 13:17:13;;;;;;;;;;;;;;;;;;4944891;28;93663;-73
2024/03/12 13:19:38;;;;;;;;;;;;;;;;;;4947057;28;93401;-73
2024/03/12 13:22:04;;;;;;;;;;;;;;;;;;4946692;28;92906;-74
2024/03/12 13:24:29;;;;;;;;;;;;;;;;;;4949709;28;92189;-74
2024/03/12 13:26:54;;;;;;;;;;;;;;;;;;4947088;28;93636;-73
2024/03/12 13:29:20;;;;;;;;;;;;;;;;;;4946700;28;92863;-74
2024/03/12 13:31:46;;;;;;;;;;;;;;;;;;4946858;28;93495;-74
2024/03/12 13:34:12;;;;;;;;;;;;;;;;;;4947159;28;92029;-74
2024/03/12 13:36:38;;;;;;;;;;;;;;;;;;4946346;28;92775;-74
2024/03/12 13:39:03;;;;;;;;;;;;;;;;;;4946100;28;93262;-73
2024/03/12 13:41:30;;;;;;;;;;;;;;;;;;4945081;28;93848;-73
2024/03/12 13:43:55;;;;;;;;;;;;;;;;;;4946324;28;92571;-73
2024/03/12 13:46:22;;;;;;;;;;;;;;;;;;4948830;28;92570;-73
2024/03/12 13:48:49;;;;;;;;;;;;;;;;;;4944874;28;92544;-73
2024/03/12 13:51:15;;;;;;;;;;;;;;;;;;4945982;28;92567;-74
2024/03/12 13:53:41;;;;;;;;;;;;;;;;;;4934835;28;92774;-73
2024/03/12 13:56:09;;;;;;;;;;;;;;;;;;4926913;28;92190;-74
2024/03/12 13:58:35;;;;;;;;;;;;;;;;;;4927119;28;92402;-74
2024/03/12 14:01:01;;;;;;;;;;;;;;;;;;4926905;28;92858;-73
2024/03/12 14:03:30;;;;;;;;;;;;;;;;;;4926930;28;92608;-74
2024/03/12 14:05:56;;;;;;;;;;;;;;;;;;4929199;28;93584;-74
2024/03/12 14:08:21;;;;;;;;;;;;;;;;;;4926538;28;92366;-73
2024/03/12 14:10:47;;;;;;;;;;;;;;;;;;4926817;28;93184;-73
2024/03/12 14:13:13;;;;;;;;;;;;;;;;;;4926459;28;93012;-73
2024/03/12 14:15:38;;;;;;;;;;;;;;;;;;4926604;28;92556;-75
2024/03/12 14:18:05;;;;;;;;;;;;;;;;;;4926936;28;93435;-74
2024/03/12 14:20:30;;;;;;;;;;;;;;;;;;4926681;28;93203;-74
2024/03/12 14:22:55;;;;;;;;;;;;;;;;;;4927394;28;91974;-74
2024/03/12 14:25:20;;;;;;;;;;;;;;;;;;4926132;28;92958;-74
2024/03/12 14:27:46;;;;;;;;;;;;;;;;;;4927465;28;93035;-74
2024/03/12 14:30:13;;;;;;;;;;;;;;;;;;4925719;28;93345;-74
2024/03/12 14:32:38;;;;;;;;;;;;;;;;;;4925866;28;92860;-73
2024/03/12 14:35:04;;;;;;;;;;;;;;;;;;4925768;28;92695;-74
2024/03/12 14:37:30;;;;;;;;;;;;;;;;;;4925853;28;94205;-74
2024/03/12 14:39:55;;;;;;;;;;;;;;;;;;4934943;28;93807;-73
2024/03/12 14:42:23;;;;;;;;;;;;;;;;;;4945354;28;92626;-73
2024/03/12 14:44:49;;;;;;;;;;;;;;;;;;4960375;28;93812;-74
2024/03/12 14:47:14;;;;;;;;;;;;;;;;;;4946032;28;92072;-74
2024/03/12 14:49:39;;;;;;;;;;;;;;;;;;4948511;28;93601;-74
2024/03/12 14:52:05;;;;;;;;;;;;;;;;;;4945526;28;93733;-74
2024/03/12 14:54:30;;;;;;;;;;;;;;;;;;4944661;28;93504;-75
2024/03/12 14:56:55;;;;;;;;;;;;;;;;;;4944756;28;96403;-74
2024/03/12 14:59:21;;;;;;;;;;;;;;;;;;4945496;28;92969;-74
2024/03/12 15:01:46;;;;;;;;;;;;;;;;;;4934951;28;92532;-74
2024/03/12 15:04:11;;;;;;;;;;;;;;;;;;4925377;28;92906;-74
2024/03/12 15:06:36;;;;;;;;;;;;;;;;;;4925938;28;93308;-73
2024/03/12 15:09:03;;;;;;;;;;;;;;;;;;4925468;28;93217;-74
2024/03/12 15:11:29;;;;;;;;;;;;;;;;;;4929110;28;92671;-74
2024/03/12 15:13:54;;;;;;;;;;;;;;;;;;4924397;28;93069;-74
2024/03/12 15:16:20;;;;;;;;;;;;;;;;;;4936646;28;92873;-74
2024/03/12 15:18:45;;;;;;;;;;;;;;;;;;4944689;28;93778;-74
2024/03/12 15:21:12;;;;;;;;;;;;;;;;;;4945421;28;92794;-73
2024/03/12 15:23:37;;;;;;;;;;;;;;;;;;4945132;28;92667;-74
2024/03/12 15:26:02;;;;;;;;;;;;;;;;;;4944686;28;93040;-74
2024/03/12 15:28:28;;;;;;;;;;;;;;;;;;4945156;28;92251;-74
2024/03/12 15:30:53;;;;;;;;;;;;;;;;;;4945027;28;92630;-75
2024/03/12 15:33:18;;;;;;;;;;;;;;;;;;4947325;28;92867;-75
2024/03/12 15:35:45;;;;;;;;;;;;;;;;;;4944980;28;92522;-74
2024/03/12 15:38:10;;;;;;;;;;;;;;;;;;4944360;28;92778;-75
2024/03/12 15:40:35;;;;;;;;;;;;;;;;;;4944243;28;92818;-75
2024/03/12 15:43:01;;;;;;;;;;;;;;;;;;4944445;28;95285;-75
2024/03/12 15:45:26;;;;;;;;;;;;;;;;;;4945308;28;94438;-75
2024/03/12 15:47:52;;;;;;;;;;;;;;;;;;4944844;28;92895;-75
2024/03/12 15:50:17;;;;;;;;;;;;;;;;;;4944867;28;93454;-74
2024/03/12 15:52:43;;;;;;;;;;;;;;;;;;4940985;28;93586;-73
2024/03/12 15:55:09;;;;;;;;;;;;;;;;;;4927143;28;92441;-73
2024/03/12 15:57:35;;;;;;;;;;;;;;;;;;4924865;28;93185;-73
2024/03/12 16:00:00;;;;;;;;;;;;;;;;;;4925803;28;91962;-74
2024/03/12 16:02:25;;;;;;;;;;;;;;;;;;4924832;28;92181;-74
2024/03/12 16:04:50;;;;;;;;;;;;;;;;;;4924422;28;93854;-74
2024/03/12 16:07:16;;;;;;;;;;;;;;;;;;4924334;28;93235;-74
2024/03/12 16:09:44;;;;;;;;;;;;;;;;;;4924545;28;93629;-73
2024/03/12 16:12:09;;;;;;;;;;;;;;;;;;4924110;28;93368;-73
2024/03/12 16:14:34;;;;;;;;;;;;;;;;;;4927822;28;92186;-73
2024/03/12 16:17:04;;;;;;;;;;;;;;;;;;4925065;28;92812;-74
2024/03/12 16:19:31;;;;;;;;;;;;;;;;;;4923810;28;93508;-74
2024/03/12 16:21:57;;;;;;;;;;;;;;;;;;4925043;28;93006;-74
2024/03/12 16:24:22;;;;;;;;;;;;;;;;;;4925301;28;92055;-73
2024/03/12 16:26:47;;;;;;;;;;;;;;;;;;4924490;28;92726;-74
2024/03/12 16:29:12;;;;;;;;;;;;;;;;;;4924687;28;93128;-74
2024/03/12 16:31:40;;;;;;;;;;;;;;;;;;4927282;28;96481;-74
2024/03/12 16:34:07;;;;;;;;;;;;;;;;;;4943961;28;92688;-74
2024/03/12 16:36:32;;;;;;;;;;;;;;;;;;4947074;28;92885;-74
2024/03/12 16:38:57;;;;;;;;;;;;;;;;;;4944032;28;92761;-73
2024/03/12 16:41:23;;;;;;;;;;;;;;;;;;4943885;28;92935;-74
2024/03/12 16:43:48;;;;;;;;;;;;;;;;;;4943643;28;92931;-74
2024/03/12 16:46:15;;;;;;;;;;;;;;;;;;4943571;28;92740;-73
2024/03/12 16:48:41;;;;;;;;;;;;;;;;;;4944104;28;93937;-74